createdAt,value
2019-03-29T00:01:02.363Z,99279.00
2019-03-29T00:03:31.738Z,99279.00
2019-03-29T00:06:01.123Z,99270.00
2019-03-29T00:08:30.482Z,99276.00
2019-03-29T00:10:59.844Z,99288.00
2019-03-29T00:13:29.204Z,99273.00
2019-03-29T00:15:59.971Z,99275.00
2019-03-29T00:18:29.496Z,99277.00
2019-03-29T00:20:58.859Z,99262.00
2019-03-29T00:23:29.983Z,99270.00
2019-03-29T00:25:59.389Z,99267.00
2019-03-29T00:28:28.776Z,99273.00
2019-03-29T00:30:58.175Z,99261.00
2019-03-29T00:33:27.559Z,99272.00
2019-03-29T00:35:56.987Z,99256.00
2019-03-29T00:38:26.385Z,99253.00
2019-03-29T00:40:55.737Z,99259.00
2019-03-29T00:43:25.092Z,99249.00
2019-03-29T00:45:54.612Z,99247.00
2019-03-29T00:48:23.972Z,99243.00
2019-03-29T00:50:53.376Z,99247.00
2019-03-29T00:53:22.842Z,99246.00
2019-03-29T00:55:52.252Z,99257.00
2019-03-29T00:58:22.845Z,99245.00
2019-03-29T01:00:52.352Z,99256.00
2019-03-29T01:03:21.715Z,99249.00
2019-03-29T01:05:51.102Z,99252.00
2019-03-29T01:08:20.914Z,99263.00
2019-03-29T01:10:50.287Z,99251.00
2019-03-29T01:13:19.649Z,99264.00
2019-03-29T01:15:49.028Z,99233.00
2019-03-29T01:18:18.401Z,99246.00
2019-03-29T01:20:48.086Z,99235.00
2019-03-29T01:23:17.533Z,99238.00
2019-03-29T01:25:47.568Z,99228.00
2019-03-29T01:28:16.954Z,99238.00
2019-03-29T01:30:46.698Z,99231.00
2019-03-29T01:33:16.071Z,99230.00
2019-03-29T01:35:45.437Z,99229.00
2019-03-29T01:38:21.725Z,99230.00
2019-03-29T01:40:45.943Z,99225.00
2019-03-29T01:43:15.310Z,99227.00
2019-03-29T01:45:45.912Z,99200.00
2019-03-29T01:48:15.369Z,99210.00
2019-03-29T01:50:45.411Z,99219.00
2019-03-29T01:53:15.270Z,99222.00
2019-03-29T02:14:46.686Z,99221.00
2019-03-29T02:17:16.054Z,99201.00
2019-03-29T02:19:45.409Z,99202.00
2019-03-29T02:22:14.792Z,99192.00
2019-03-29T02:24:44.130Z,99191.00
2019-03-29T02:27:13.807Z,99190.00
2019-03-29T02:29:43.183Z,99175.00
2019-03-29T02:32:12.621Z,99186.00
2019-03-29T02:34:43.628Z,99179.00
2019-03-29T02:37:13.512Z,99173.00
2019-03-29T02:39:42.855Z,99167.00
2019-03-29T02:42:12.393Z,99176.00
2019-03-29T02:44:41.723Z,99178.00
2019-03-29T02:47:11.090Z,99168.00
2019-03-29T02:49:40.718Z,99158.00
2019-03-29T02:52:10.385Z,99155.00
2019-03-29T02:54:39.812Z,99149.00
2019-03-29T02:57:09.172Z,99150.00
2019-03-29T02:59:39.058Z,99155.00
2019-03-29T03:02:08.490Z,99160.00
2019-03-29T03:04:37.855Z,99153.00
2019-03-29T03:07:07.286Z,99153.00
2019-03-29T03:09:36.589Z,99166.00
2019-03-29T03:12:05.955Z,99165.00
2019-03-29T03:14:35.332Z,99159.00
2019-03-29T03:17:04.699Z,99172.00
2019-03-29T03:19:34.055Z,99165.00
2019-03-29T03:22:03.465Z,99162.00
2019-03-29T03:24:32.810Z,99158.00
2019-03-29T03:27:02.159Z,99163.00
2019-03-29T03:29:31.970Z,99156.00
2019-03-29T03:32:01.340Z,99166.00
2019-03-29T03:34:30.863Z,99167.00
2019-03-29T03:37:00.269Z,99161.00
2019-03-29T03:39:32.026Z,99147.00
2019-03-29T03:42:00.792Z,99156.00
2019-03-29T03:44:30.173Z,99155.00
2019-03-29T03:46:59.544Z,99154.00
2019-03-29T03:49:29.961Z,99163.00
2019-03-29T03:51:59.920Z,99154.00
2019-03-29T03:54:29.266Z,99151.00
2019-03-29T03:57:00.154Z,99159.00
2019-03-29T03:59:31.157Z,99154.00
2019-03-29T04:02:00.596Z,99174.00
2019-03-29T04:04:30.474Z,99161.00
2019-03-29T04:06:59.866Z,99154.00
2019-03-29T04:09:29.230Z,99152.00
2019-03-29T04:11:58.600Z,99149.00
2019-03-29T04:14:27.978Z,99147.00
2019-03-29T04:16:57.321Z,99142.00
2019-03-29T04:19:26.677Z,99148.00
2019-03-29T04:21:57.434Z,99146.00
2019-03-29T04:24:26.781Z,99147.00
2019-03-29T04:26:56.148Z,99142.00
2019-03-29T04:29:25.686Z,99141.00
2019-03-29T04:31:55.301Z,99147.00
2019-03-29T04:34:24.678Z,99147.00
2019-03-29T04:36:54.099Z,99150.00
2019-03-29T04:39:23.427Z,99156.00
2019-03-29T04:41:52.853Z,99153.00
2019-03-29T04:44:22.721Z,99160.00
2019-03-29T04:46:52.075Z,99167.00
2019-03-29T04:49:21.433Z,99159.00
2019-03-29T04:51:50.820Z,99162.00
2019-03-29T04:54:20.180Z,99169.00
2019-03-29T04:56:49.544Z,99167.00
2019-03-29T04:59:18.908Z,99164.00
2019-03-29T05:01:48.276Z,99170.00
2019-03-29T05:04:17.653Z,99157.00
2019-03-29T05:06:47.382Z,99161.00
2019-03-29T05:09:16.748Z,99167.00
2019-03-29T05:11:46.110Z,99163.00
2019-03-29T05:14:15.485Z,99161.00
2019-03-29T05:16:44.865Z,99154.00
2019-03-29T05:19:14.224Z,99150.00
2019-03-29T05:21:43.638Z,99151.00
2019-03-29T05:24:13.004Z,99146.00
2019-03-29T05:26:42.384Z,99148.00
2019-03-29T05:29:12.212Z,99145.00
2019-03-29T05:31:41.595Z,99163.00
2019-03-29T05:34:12.325Z,99148.00
2019-03-29T05:36:41.718Z,99153.00
2019-03-29T05:39:11.076Z,99147.00
2019-03-29T05:41:40.437Z,99147.00
2019-03-29T05:44:09.828Z,99156.00
2019-03-29T05:46:39.270Z,99146.00
2019-03-29T05:49:08.591Z,99147.00
2019-03-29T05:51:37.999Z,99141.00
2019-03-29T05:54:07.349Z,99135.00
2019-03-29T05:56:36.755Z,99148.00
2019-03-29T05:59:06.145Z,99144.00
2019-03-29T06:01:35.514Z,99144.00
2019-03-29T06:04:04.935Z,99144.00
2019-03-29T06:06:34.322Z,99143.00
2019-03-29T06:09:05.347Z,99133.00
2019-03-29T06:11:34.714Z,99144.00
2019-03-29T06:14:04.363Z,99147.00
2019-03-29T06:16:39.259Z,99141.00
2019-03-29T06:19:04.822Z,99146.00
2019-03-29T06:21:34.207Z,99145.00
2019-03-29T06:24:03.658Z,99141.00
2019-03-29T06:26:32.983Z,99149.00
2019-03-29T06:29:02.368Z,99151.00
2019-03-29T06:31:31.745Z,99143.00
2019-03-29T06:34:01.116Z,99142.00
2019-03-29T06:36:32.677Z,99131.00
2019-03-29T06:39:05.635Z,99138.00
2019-03-29T06:41:35.005Z,99142.00
2019-03-29T06:44:04.381Z,99136.00
2019-03-29T06:46:36.197Z,99127.00
2019-03-29T06:49:05.572Z,99157.00
2019-03-29T06:51:34.970Z,99133.00
2019-03-29T06:54:04.329Z,99141.00
2019-03-29T06:56:33.703Z,99140.00
2019-03-29T06:59:03.098Z,99147.00
2019-03-29T07:01:32.456Z,99139.00
2019-03-29T07:04:01.811Z,99128.00
2019-03-29T07:06:31.880Z,99143.00
2019-03-29T07:09:06.182Z,99144.00
2019-03-29T07:11:35.718Z,99138.00
2019-03-29T07:14:06.123Z,99147.00
2019-03-29T07:16:35.567Z,99146.00
2019-03-29T07:19:05.290Z,99146.00
2019-03-29T07:21:34.696Z,99135.00
2019-03-29T07:24:04.054Z,99146.00
2019-03-29T07:26:33.438Z,99131.00
2019-03-29T07:29:02.826Z,99147.00
2019-03-29T07:31:32.178Z,99133.00
2019-03-29T07:34:01.557Z,99129.00
2019-03-29T07:36:30.955Z,99134.00
2019-03-29T07:39:00.993Z,99124.00
2019-03-29T07:41:32.201Z,99137.00
2019-03-29T07:44:01.465Z,99138.00
2019-03-29T07:46:30.817Z,99125.00
2019-03-29T07:49:00.186Z,99132.00
2019-03-29T07:51:29.562Z,99119.00
2019-03-29T07:53:58.914Z,99121.00
2019-03-29T07:56:28.281Z,99125.00
2019-03-29T07:58:58.407Z,99113.00
2019-03-29T08:01:27.767Z,99116.00
2019-03-29T08:03:57.134Z,99114.00
2019-03-29T08:06:26.491Z,99108.00
2019-03-29T08:08:55.851Z,99117.00
2019-03-29T08:11:26.821Z,99110.00
2019-03-29T08:13:56.312Z,99108.00
2019-03-29T08:16:25.704Z,99111.00
2019-03-29T08:18:55.085Z,99100.00
2019-03-29T08:21:24.894Z,99106.00
2019-03-29T08:23:54.255Z,99097.00
2019-03-29T08:26:23.611Z,99109.00
2019-03-29T08:28:53.000Z,99093.00
2019-03-29T08:31:22.349Z,99110.00
2019-03-29T08:33:51.717Z,99100.00
2019-03-29T08:36:21.116Z,99093.00
2019-03-29T08:38:50.474Z,99100.00
2019-03-29T08:41:20.256Z,99102.00
2019-03-29T08:43:49.654Z,99099.00
2019-03-29T08:46:19.013Z,99093.00
2019-03-29T08:48:48.376Z,99084.00
2019-03-29T08:51:17.769Z,99089.00
2019-03-29T08:53:47.459Z,99073.00
2019-03-29T08:56:16.842Z,99070.00
2019-03-29T08:58:46.724Z,99073.00
2019-03-29T09:01:19.135Z,99074.00
2019-03-29T09:04:02.653Z,99076.00
2019-03-29T09:06:19.020Z,99073.00
2019-03-29T09:08:48.449Z,99054.00
2019-03-29T09:11:17.810Z,99062.00
2019-03-29T09:13:47.856Z,99067.00
2019-03-29T09:16:17.216Z,99051.00
2019-03-29T09:18:46.575Z,99052.00
2019-03-29T09:21:15.956Z,99051.00
2019-03-29T09:23:45.306Z,99060.00
2019-03-29T09:26:14.678Z,99052.00
2019-03-29T09:28:44.396Z,99052.00
2019-03-29T09:31:13.753Z,99053.00
2019-03-29T09:33:43.109Z,99042.00
2019-03-29T09:36:12.665Z,99042.00
2019-03-29T09:38:43.674Z,99044.00
2019-03-29T09:41:13.252Z,99036.00
2019-03-29T09:43:44.003Z,99036.00
2019-03-29T09:46:13.354Z,99040.00
2019-03-29T09:48:42.706Z,99026.00
2019-03-29T09:51:12.126Z,99032.00
2019-03-29T09:53:41.621Z,99024.00
2019-03-29T09:56:11.297Z,99025.00
2019-03-29T09:58:40.676Z,99017.00
2019-03-29T10:01:10.074Z,99012.00
2019-03-29T10:03:39.424Z,99009.00
2019-03-29T10:06:08.820Z,99011.00
2019-03-29T10:08:38.159Z,99012.00
2019-03-29T10:11:07.601Z,99006.00
2019-03-29T10:13:37.404Z,99008.00
2019-03-29T10:16:06.763Z,98999.00
2019-03-29T10:18:36.123Z,99012.00
2019-03-29T10:21:05.579Z,98991.00
2019-03-29T10:23:34.940Z,98998.00
2019-03-29T10:26:04.451Z,98998.00
2019-03-29T10:28:33.829Z,98995.00
2019-03-29T10:31:04.718Z,98982.00
2019-03-29T10:33:34.070Z,98993.00
2019-03-29T10:36:04.236Z,98982.00
2019-03-29T10:38:34.273Z,98976.00
2019-03-29T10:41:03.852Z,98984.00
2019-03-29T10:43:36.181Z,98986.00
2019-03-29T10:46:05.910Z,98975.00
2019-03-29T10:48:35.278Z,98982.00
2019-03-29T10:51:08.170Z,98961.00
2019-03-29T10:53:36.483Z,98955.00
2019-03-29T10:56:05.845Z,98951.00
2019-03-29T10:58:35.217Z,98968.00
2019-03-29T11:01:05.015Z,98956.00
2019-03-29T11:03:34.388Z,98957.00
2019-03-29T11:06:03.854Z,98938.00
2019-03-29T11:08:33.268Z,98941.00
2019-03-29T11:11:02.635Z,98952.00
2019-03-29T11:13:32.760Z,98943.00
2019-03-29T11:16:02.129Z,98935.00
2019-03-29T11:18:31.537Z,98926.00
2019-03-29T11:21:00.915Z,98930.00
2019-03-29T11:23:30.270Z,98930.00
2019-03-29T11:25:59.632Z,98930.00
2019-03-29T11:28:29.099Z,98914.00
2019-03-29T11:30:58.464Z,98908.00
2019-03-29T11:33:28.397Z,98900.00
2019-03-29T11:35:58.181Z,98906.00
2019-03-29T11:38:27.537Z,98908.00
2019-03-29T11:40:56.924Z,98912.00
2019-03-29T11:43:27.486Z,98892.00
2019-03-29T11:45:56.981Z,98891.00
2019-03-29T11:48:29.579Z,98899.00
2019-03-29T11:50:59.129Z,98885.00
2019-03-29T11:53:28.561Z,98880.00
2019-03-29T11:55:58.256Z,98888.00
2019-03-29T11:58:27.620Z,98891.00
2019-03-29T12:00:56.982Z,98885.00
2019-03-29T12:03:26.369Z,98881.00
2019-03-29T12:05:55.787Z,98880.00
2019-03-29T12:08:25.218Z,98874.00
2019-03-29T12:10:54.597Z,98871.00
2019-03-29T12:13:24.065Z,98859.00
2019-03-29T12:15:53.422Z,98871.00
2019-03-29T12:18:22.777Z,98861.00
2019-03-29T12:20:54.391Z,98853.00
2019-03-29T12:23:23.266Z,98863.00
2019-03-29T12:25:52.624Z,98848.00
2019-03-29T12:28:22.011Z,98860.00
2019-03-29T12:30:51.376Z,98851.00
2019-03-29T12:33:20.747Z,98843.00
2019-03-29T12:35:50.531Z,98838.00
2019-03-29T12:38:19.893Z,98838.00
2019-03-29T12:40:49.280Z,98842.00
2019-03-29T12:43:18.719Z,98840.00
2019-03-29T12:45:48.088Z,98829.00
2019-03-29T12:48:17.438Z,98835.00
2019-03-29T12:50:48.252Z,98827.00
2019-03-29T12:53:17.608Z,98826.00
2019-03-29T12:55:46.989Z,98831.00
2019-03-29T12:58:16.717Z,98817.00
2019-03-29T13:00:46.092Z,98825.00
2019-03-29T13:03:15.535Z,98804.00
2019-03-29T13:05:44.912Z,98807.00
2019-03-29T13:08:14.258Z,98803.00
2019-03-29T13:10:43.646Z,98810.00
2019-03-29T13:13:13.111Z,98786.00
2019-03-29T13:15:42.465Z,98791.00
2019-03-29T13:18:12.095Z,98787.00
2019-03-29T13:20:42.715Z,98788.00
2019-03-29T13:23:12.127Z,98774.00
2019-03-29T13:25:41.496Z,98776.00
2019-03-29T13:28:10.916Z,98769.00
2019-03-29T13:30:40.272Z,98760.00
2019-03-29T13:33:09.646Z,98760.00
2019-03-29T13:35:39.093Z,98750.00
2019-03-29T13:38:08.466Z,98758.00
2019-03-29T13:40:40.991Z,98748.00
2019-03-29T13:43:10.841Z,98747.00
2019-03-29T13:45:40.312Z,98736.00
2019-03-29T13:48:09.715Z,98735.00
2019-03-29T13:50:39.125Z,98718.00
2019-03-29T13:53:09.865Z,98715.00
2019-03-29T13:55:39.236Z,98719.00
2019-03-29T13:58:08.661Z,98716.00
2019-03-29T14:00:38.018Z,98709.00
2019-03-29T14:03:07.399Z,98709.00
2019-03-29T14:05:36.840Z,98700.00
2019-03-29T14:08:06.251Z,98710.00
2019-03-29T14:10:35.636Z,98698.00
2019-03-29T14:13:05.009Z,98698.00
2019-03-29T14:15:34.410Z,98700.00
2019-03-29T14:18:03.747Z,98700.00
2019-03-29T14:20:34.745Z,98687.00
2019-03-29T14:23:05.346Z,98693.00
2019-03-29T14:25:34.849Z,98692.00
2019-03-29T14:28:04.998Z,98679.00
2019-03-29T14:30:34.365Z,98674.00
2019-03-29T14:33:03.724Z,98673.00
2019-03-29T14:35:33.160Z,98675.00
2019-03-29T14:38:02.585Z,98676.00
2019-03-29T14:40:31.963Z,98668.00
2019-03-29T14:43:01.353Z,98671.00
2019-03-29T14:45:30.807Z,98674.00
2019-03-29T14:48:00.156Z,98677.00
2019-03-29T14:50:29.966Z,98666.00
2019-03-29T14:52:59.399Z,98673.00
2019-03-29T14:55:31.607Z,98658.00
2019-03-29T14:58:00.986Z,98655.00
2019-03-29T15:00:42.931Z,98658.00
2019-03-29T15:03:13.114Z,98655.00
2019-03-29T15:05:42.611Z,98645.00
2019-03-29T15:08:12.058Z,98624.00
2019-03-29T15:10:45.467Z,98638.00
2019-03-29T15:13:13.403Z,98638.00
2019-03-29T15:15:42.715Z,98632.00
2019-03-29T15:18:12.146Z,98622.00
2019-03-29T15:20:52.486Z,98621.00
2019-03-29T15:23:12.593Z,98623.00
2019-03-29T15:25:41.994Z,98604.00
2019-03-29T15:28:11.354Z,98607.00
2019-03-29T15:31:00.132Z,98624.00
2019-03-29T15:33:29.520Z,98613.00
2019-03-29T15:35:58.881Z,98611.00
2019-03-29T15:38:28.264Z,98612.00
2019-03-29T15:40:57.635Z,98605.00
2019-03-29T15:43:26.990Z,98603.00
2019-03-29T15:45:56.516Z,98608.00
2019-03-29T15:48:25.832Z,98602.00
2019-03-29T15:50:55.220Z,98595.00
2019-03-29T15:53:25.099Z,98594.00
2019-03-29T15:55:54.468Z,98598.00
2019-03-29T15:58:24.693Z,98604.00
2019-03-29T16:00:54.058Z,98582.00
2019-03-29T16:03:23.433Z,98589.00
2019-03-29T16:05:52.805Z,98577.00
2019-03-29T16:08:22.203Z,98586.00
2019-03-29T16:10:51.551Z,98574.00
2019-03-29T16:13:20.915Z,98577.00
2019-03-29T16:15:50.317Z,98578.00
2019-03-29T16:18:19.666Z,98580.00
2019-03-29T16:20:49.049Z,98568.00
2019-03-29T16:23:18.448Z,98563.00
2019-03-29T16:25:47.826Z,98558.00
2019-03-29T16:28:17.181Z,98557.00
2019-03-29T16:30:46.674Z,98565.00
2019-03-29T16:33:16.417Z,98563.00
2019-03-29T16:35:46.164Z,98569.00
2019-03-29T16:38:15.973Z,98554.00
2019-03-29T16:40:45.831Z,98550.00
2019-03-29T16:43:15.586Z,98559.00
2019-03-29T16:45:48.256Z,98562.00
2019-03-29T16:48:18.218Z,98551.00
2019-03-29T16:50:47.575Z,98556.00
2019-03-29T16:53:17.070Z,98562.00
2019-03-29T16:55:46.428Z,98548.00
2019-03-29T16:58:15.834Z,98556.00
2019-03-29T17:00:46.401Z,98562.00
2019-03-29T17:03:15.771Z,98551.00
2019-03-29T17:05:45.129Z,98561.00
2019-03-29T17:08:14.553Z,98558.00
2019-03-29T17:10:43.920Z,98555.00
2019-03-29T17:13:13.269Z,98564.00
2019-03-29T17:15:43.010Z,98553.00
2019-03-29T17:18:12.379Z,98560.00
2019-03-29T17:20:41.781Z,98562.00
2019-03-29T17:23:11.160Z,98556.00
2019-03-29T17:25:40.549Z,98551.00
2019-03-29T17:28:09.918Z,98563.00
2019-03-29T17:30:42.942Z,98563.00
2019-03-29T17:33:12.389Z,98568.00
2019-03-29T17:35:41.784Z,98565.00
2019-03-29T17:38:12.046Z,98564.00
2019-03-29T17:40:41.421Z,98570.00
2019-03-29T17:43:10.843Z,98573.00
2019-03-29T17:45:40.246Z,98576.00
2019-03-29T17:48:09.664Z,98583.00
2019-03-29T17:50:40.647Z,98568.00
2019-03-29T17:53:10.107Z,98575.00
2019-03-29T17:55:39.553Z,98585.00
2019-03-29T17:58:09.415Z,98584.00
2019-03-29T18:00:39.237Z,98570.00
2019-03-29T18:03:09.262Z,98572.00
2019-03-29T18:05:38.631Z,98581.00
2019-03-29T18:08:08.021Z,98584.00
2019-03-29T18:10:37.406Z,98579.00
2019-03-29T18:13:06.870Z,98585.00
2019-03-29T18:15:37.121Z,98601.00
2019-03-29T18:18:06.580Z,98602.00
2019-03-29T18:20:35.932Z,98588.00
2019-03-29T18:23:05.422Z,98592.00
2019-03-29T18:25:34.792Z,98596.00
2019-03-29T18:28:04.833Z,98591.00
2019-03-29T18:30:40.426Z,98602.00
2019-03-29T18:33:10.035Z,98601.00
2019-03-29T18:35:39.396Z,98601.00
2019-03-29T18:38:10.605Z,98605.00
2019-03-29T18:40:39.968Z,98599.00
2019-03-29T18:43:09.329Z,98605.00
2019-03-29T18:45:41.479Z,98602.00
2019-03-29T18:48:09.908Z,98602.00
2019-03-29T18:50:39.260Z,98600.00
2019-03-29T18:53:11.339Z,98597.00
2019-03-29T18:55:40.816Z,98593.00
2019-03-29T18:58:10.248Z,98607.00
2019-03-29T19:00:39.808Z,98599.00
2019-03-29T19:03:11.814Z,98599.00
2019-03-29T19:05:40.922Z,98603.00
2019-03-29T19:08:10.284Z,98607.00
2019-03-29T19:10:39.657Z,98609.00
2019-03-29T19:13:09.034Z,98608.00
2019-03-29T19:15:38.877Z,98604.00
2019-03-29T19:18:08.231Z,98623.00
2019-03-29T19:20:37.595Z,98613.00
2019-03-29T19:23:07.060Z,98604.00
2019-03-29T19:25:36.409Z,98604.00
2019-03-29T19:28:05.861Z,98610.00
2019-03-29T19:30:35.294Z,98618.00
2019-03-29T19:33:07.238Z,98603.00
2019-03-29T19:35:36.608Z,98602.00
2019-03-29T19:38:06.698Z,98601.00
2019-03-29T19:40:36.415Z,98601.00
2019-03-29T19:43:05.894Z,98599.00
2019-03-29T19:45:35.295Z,98595.00
2019-03-29T19:48:04.705Z,98602.00
2019-03-29T19:50:34.103Z,98591.00
2019-03-29T19:53:03.553Z,98595.00
2019-03-29T19:55:32.913Z,98599.00
2019-03-29T19:58:02.354Z,98589.00
2019-03-29T20:00:41.172Z,98597.00
2019-03-29T20:03:10.717Z,98603.00
2019-03-29T20:05:40.230Z,98593.00
2019-03-29T20:08:10.142Z,98590.00
2019-03-29T20:10:39.568Z,98587.00
2019-03-29T20:13:08.941Z,98599.00
2019-03-29T20:15:38.323Z,98584.00
2019-03-29T20:18:08.028Z,98600.00
2019-03-29T20:20:37.411Z,98593.00
2019-03-29T20:23:07.044Z,98599.00
2019-03-29T20:25:36.481Z,98588.00
2019-03-29T20:28:05.893Z,98585.00
2019-03-29T20:30:35.424Z,98589.00
2019-03-29T20:33:04.971Z,98584.00
2019-03-29T20:35:34.348Z,98581.00
2019-03-29T20:38:03.920Z,98590.00
2019-03-29T20:40:33.326Z,98577.00
2019-03-29T20:43:02.696Z,98586.00
2019-03-29T20:45:32.156Z,98583.00
2019-03-29T20:48:01.509Z,98592.00
2019-03-29T20:50:30.872Z,98586.00
2019-03-29T20:53:00.517Z,98585.00
2019-03-29T20:55:30.171Z,98587.00
2019-03-29T20:57:59.547Z,98585.00
2019-03-29T21:00:28.929Z,98590.00
2019-03-29T21:02:58.380Z,98591.00
2019-03-29T21:05:27.784Z,98587.00
2019-03-29T21:07:57.257Z,98598.00
2019-03-29T21:10:27.934Z,98601.00
2019-03-29T21:12:57.589Z,98594.00
2019-03-29T21:15:26.970Z,98575.00
2019-03-29T21:17:57.881Z,98587.00
2019-03-29T21:20:27.484Z,98577.00
2019-03-29T21:22:56.922Z,98584.00
2019-03-29T21:25:26.364Z,98585.00
2019-03-29T21:27:55.776Z,98582.00
2019-03-29T21:30:25.707Z,98581.00
2019-03-29T21:32:55.015Z,98576.00
2019-03-29T21:35:24.409Z,98560.00
2019-03-29T21:37:53.775Z,98570.00
2019-03-29T21:40:23.124Z,98583.00
2019-03-29T21:42:52.547Z,98563.00
2019-03-29T21:45:28.444Z,98555.00
2019-03-29T21:48:04.107Z,98556.00
2019-03-29T21:50:24.071Z,98562.00
2019-03-29T21:52:53.840Z,98554.00
2019-03-29T21:55:23.202Z,98562.00
2019-03-29T21:57:52.556Z,98564.00
2019-03-29T22:00:22.065Z,98555.00
2019-03-29T22:02:51.496Z,98555.00
2019-03-29T22:05:20.852Z,98545.00
2019-03-29T22:07:50.229Z,98544.00
2019-03-29T22:10:19.599Z,98545.00
2019-03-29T22:12:49.498Z,98540.00
2019-03-29T22:15:18.891Z,98540.00
2019-03-29T22:17:48.252Z,98552.00
2019-03-29T22:20:17.603Z,98545.00
2019-03-29T22:22:47.187Z,98538.00
2019-03-29T22:25:16.498Z,98534.00
2019-03-29T22:27:45.844Z,98549.00
2019-03-29T22:30:17.018Z,98528.00
2019-03-29T22:32:46.375Z,98523.00
2019-03-29T22:35:15.716Z,98531.00
2019-03-29T22:37:45.381Z,98530.00
2019-03-29T22:40:20.727Z,98540.00
2019-03-29T22:42:50.090Z,98519.00
2019-03-29T22:45:19.540Z,98512.00
2019-03-29T22:47:48.907Z,98513.00
2019-03-29T22:50:18.332Z,98521.00
2019-03-29T22:52:48.078Z,98508.00
2019-03-29T22:55:17.428Z,98503.00
2019-03-29T22:57:47.227Z,98507.00
2019-03-29T23:00:30.968Z,98503.00
2019-03-29T23:03:00.311Z,98488.00
2019-03-29T23:05:29.667Z,98496.00
2019-03-29T23:07:59.704Z,98490.00
2019-03-29T23:10:29.053Z,98493.00
2019-03-29T23:12:58.573Z,98494.00
2019-03-29T23:15:29.400Z,98482.00
2019-03-29T23:17:58.810Z,98482.00
2019-03-29T23:20:28.220Z,98489.00
2019-03-29T23:22:57.603Z,98479.00
2019-03-29T23:25:26.985Z,98481.00
2019-03-29T23:27:56.335Z,98481.00
2019-03-29T23:30:25.895Z,98478.00
2019-03-29T23:32:55.240Z,98473.00
2019-03-29T23:35:24.614Z,98480.00
2019-03-29T23:37:54.062Z,98479.00
2019-03-29T23:40:23.429Z,98471.00
2019-03-29T23:42:52.761Z,98474.00
2019-03-29T23:45:22.133Z,98471.00
2019-03-29T23:47:51.481Z,98466.00
2019-03-29T23:50:20.844Z,98482.00
2019-03-29T23:52:50.258Z,98477.00
2019-03-29T23:55:19.631Z,98462.00
2019-03-29T23:57:48.977Z,98465.00
